CheckWX is a tool to help pilots better visualize weather data.  It is not intended as a substitute for an official pre-flight weather briefing.

08:53:25 UTC

FDSK METAR
Sikhuphe International Airport
Swaziland
Current

53 mins ago

FDSK 220800Z 16006KT 9999 SCT035 22/14 Q1025 NOSIG
Observed
May-22 @ 08:00 UTC
Wind
  • 160° at 6 KTS
Visibility
10,000+ meters
Flight Rules
VFR
Cloud Levels
  • Scattered at 3,500' AGL
Temperature
22°C / 72°F
Dewpoint
14°C / 57°F
Humidity
61%
Altimeter
30.27" Hg
Pressure
1024.92 hPa
Previous

2 hours ago

FDSK 220700Z 19006KT 9999 FEW035 20/14 Q1025 NOSIG
Observed
May-22 @ 07:00 UTC
Wind
  • 190° at 6 KTS
Visibility
10,000+ meters
Flight Rules
VFR
Cloud Levels
  • Few at 3,500' AGL
Temperature
20°C / 68°F
Dewpoint
14°C / 57°F
Humidity
69%
Altimeter
30.27" Hg
Pressure
1024.92 hPa
Previous

3 hours ago

FDSK 220600Z VRB02KT 9999 BKN035 18/14 Q1024 NOSIG
Observed
May-22 @ 06:00 UTC
Wind
  • Variable at 2 KTS
Visibility
10,000+ meters
Flight Rules
VFR
Cloud Levels
  • Broken at 3,500' AGL
Temperature
18°C / 64°F
Dewpoint
14°C / 57°F
Humidity
78%
Altimeter
30.24" Hg
Pressure
1023.92 hPa